sensor_id;sensor_type;location;lat;lon;timestamp;temperature;humidity
10826;DHT22;5466;55.898;14.094;2023-08-06T00:00:33;11.00;99.90
10826;DHT22;5466;55.898;14.094;2023-08-06T00:02:34;11.00;99.90
10826;DHT22;5466;55.898;14.094;2023-08-06T00:04:35;11.00;99.90
10826;DHT22;5466;55.898;14.094;2023-08-06T00:06:35;11.00;99.90
10826;DHT22;5466;55.898;14.094;2023-08-06T00:08:36;11.00;99.90
10826;DHT22;5466;55.898;14.094;2023-08-06T00:10:36;10.90;99.90
10826;DHT22;5466;55.898;14.094;2023-08-06T00:12:37;10.90;99.90
10826;DHT22;5466;55.898;14.094;2023-08-06T00:14:38;10.90;99.90
10826;DHT22;5466;55.898;14.094;2023-08-06T00:16:38;10.80;99.90
10826;DHT22;5466;55.898;14.094;2023-08-06T00:18:40;10.80;99.90
10826;DHT22;5466;55.898;14.094;2023-08-06T00:20:40;10.70;99.90
10826;DHT22;5466;55.898;14.094;2023-08-06T00:22:44;10.70;99.90
10826;DHT22;5466;55.898;14.094;2023-08-06T00:24:44;10.70;99.90
10826;DHT22;5466;55.898;14.094;2023-08-06T00:26:45;10.60;99.90
10826;DHT22;5466;55.898;14.094;2023-08-06T00:28:45;10.60;99.90
10826;DHT22;5466;55.898;14.094;2023-08-06T00:30:46;10.60;99.90
10826;DHT22;5466;55.898;14.094;2023-08-06T00:32:46;10.60;99.90
10826;DHT22;5466;55.898;14.094;2023-08-06T00:34:47;10.60;99.90
10826;DHT22;5466;55.898;14.094;2023-08-06T00:36:49;10.60;99.90
10826;DHT22;5466;55.898;14.094;2023-08-06T00:38:50;10.60;99.90
10826;DHT22;5466;55.898;14.094;2023-08-06T00:40:50;10.60;99.90
10826;DHT22;5466;55.898;14.094;2023-08-06T00:42:51;10.60;99.90
10826;DHT22;5466;55.898;14.094;2023-08-06T00:44:52;10.70;99.90
10826;DHT22;5466;55.898;14.094;2023-08-06T00:46:52;10.60;99.90
10826;DHT22;5466;55.898;14.094;2023-08-06T00:48:53;10.70;99.90
10826;DHT22;5466;55.898;14.094;2023-08-06T00:50:55;10.70;99.90
10826;DHT22;5466;55.898;14.094;2023-08-06T00:52:56;10.70;99.90
10826;DHT22;5466;55.898;14.094;2023-08-06T00:54:57;10.60;99.90
10826;DHT22;5466;55.898;14.094;2023-08-06T00:56:59;10.60;99.90
10826;DHT22;5466;55.898;14.094;2023-08-06T00:59:01;10.60;99.90
10826;DHT22;5466;55.898;14.094;2023-08-06T01:01:02;10.60;99.90
10826;DHT22;5466;55.898;14.094;2023-08-06T01:03:02;10.60;99.90
10826;DHT22;5466;55.898;14.094;2023-08-06T01:05:03;10.60;99.90
10826;DHT22;5466;55.898;14.094;2023-08-06T01:09:45;10.60;99.90
10826;DHT22;5466;55.898;14.094;2023-08-06T01:12:18;10.60;99.90
10826;DHT22;5466;55.898;14.094;2023-08-06T01:14:33;10.60;99.90
10826;DHT22;5466;55.898;14.094;2023-08-06T01:16:38;10.70;99.90
10826;DHT22;5466;55.898;14.094;2023-08-06T01:18:40;10.70;99.90
10826;DHT22;5466;55.898;14.094;2023-08-06T01:20:42;10.60;99.90
10826;DHT22;5466;55.898;14.094;2023-08-06T01:22:42;10.60;99.90
10826;DHT22;5466;55.898;14.094;2023-08-06T01:24:47;10.60;99.90
10826;DHT22;5466;55.898;14.094;2023-08-06T01:26:57;10.60;99.90
10826;DHT22;5466;55.898;14.094;2023-08-06T01:29:29;10.60;99.90
10826;DHT22;5466;55.898;14.094;2023-08-06T01:31:32;10.60;99.90
10826;DHT22;5466;55.898;14.094;2023-08-06T01:33:34;10.70;99.90
10826;DHT22;5466;55.898;14.094;2023-08-06T01:35:37;10.60;99.90
10826;DHT22;5466;55.898;14.094;2023-08-06T01:37:38;10.70;99.90
10826;DHT22;5466;55.898;14.094;2023-08-06T01:39:42;10.60;99.90
10826;DHT22;5466;55.898;14.094;2023-08-06T01:41:43;10.60;99.90
10826;DHT22;5466;55.898;14.094;2023-08-06T01:43:43;10.60;99.90
10826;DHT22;5466;55.898;14.094;2023-08-06T01:45:44;10.60;99.90
10826;DHT22;5466;55.898;14.094;2023-08-06T01:47:45;10.60;99.90
10826;DHT22;5466;55.898;14.094;2023-08-06T01:49:45;10.50;99.90
10826;DHT22;5466;55.898;14.094;2023-08-06T01:51:46;10.50;99.90
10826;DHT22;5466;55.898;14.094;2023-08-06T01:53:46;10.50;99.90
10826;DHT22;5466;55.898;14.094;2023-08-06T01:55:50;10.50;99.90
10826;DHT22;5466;55.898;14.094;2023-08-06T01:57:51;10.60;99.90
10826;DHT22;5466;55.898;14.094;2023-08-06T01:59:51;10.50;99.90
10826;DHT22;5466;55.898;14.094;2023-08-06T02:01:52;10.50;99.90
10826;DHT22;5466;55.898;14.094;2023-08-06T02:03:52;10.50;99.90
10826;DHT22;5466;55.898;14.094;2023-08-06T02:05:53;10.50;99.90
10826;DHT22;5466;55.898;14.094;2023-08-06T02:07:54;10.50;99.90
10826;DHT22;5466;55.898;14.094;2023-08-06T02:09:55;10.50;99.90
10826;DHT22;5466;55.898;14.094;2023-08-06T02:11:56;10.50;99.90
10826;DHT22;5466;55.898;14.094;2023-08-06T02:13:56;10.50;99.90
10826;DHT22;5466;55.898;14.094;2023-08-06T02:15:57;10.50;99.90
10826;DHT22;5466;55.898;14.094;2023-08-06T02:17:57;10.40;99.90
10826;DHT22;5466;55.898;14.094;2023-08-06T02:19:58;10.40;99.90
10826;DHT22;5466;55.898;14.094;2023-08-06T02:21:58;10.40;99.90
10826;DHT22;5466;55.898;14.094;2023-08-06T02:23:59;10.40;99.90
10826;DHT22;5466;55.898;14.094;2023-08-06T02:26:04;10.40;99.90
10826;DHT22;5466;55.898;14.094;2023-08-06T02:28:05;10.50;99.90
10826;DHT22;5466;55.898;14.094;2023-08-06T02:30:06;10.40;99.90
10826;DHT22;5466;55.898;14.094;2023-08-06T02:32:07;10.40;99.90
10826;DHT22;5466;55.898;14.094;2023-08-06T02:34:08;10.40;99.90
10826;DHT22;5466;55.898;14.094;2023-08-06T02:36:08;10.40;99.90
10826;DHT22;5466;55.898;14.094;2023-08-06T02:38:09;10.40;99.90
10826;DHT22;5466;55.898;14.094;2023-08-06T02:40:09;10.40;99.90
10826;DHT22;5466;55.898;14.094;2023-08-06T02:42:10;10.40;99.90
10826;DHT22;5466;55.898;14.094;2023-08-06T02:44:11;10.50;99.90
10826;DHT22;5466;55.898;14.094;2023-08-06T02:46:11;10.50;99.90
10826;DHT22;5466;55.898;14.094;2023-08-06T02:48:12;10.60;99.90
10826;DHT22;5466;55.898;14.094;2023-08-06T02:50:13;10.60;99.90
10826;DHT22;5466;55.898;14.094;2023-08-06T02:52:13;10.70;99.90
10826;DHT22;5466;55.898;14.094;2023-08-06T02:54:14;10.70;99.90
10826;DHT22;5466;55.898;14.094;2023-08-06T02:56:14;10.70;99.90
10826;DHT22;5466;55.898;14.094;2023-08-06T02:58:15;10.70;99.90
10826;DHT22;5466;55.898;14.094;2023-08-06T03:00:16;10.70;99.90
10826;DHT22;5466;55.898;14.094;2023-08-06T03:02:17;10.70;99.90
10826;DHT22;5466;55.898;14.094;2023-08-06T03:04:17;10.70;99.90
10826;DHT22;5466;55.898;14.094;2023-08-06T03:06:18;10.70;99.90
10826;DHT22;5466;55.898;14.094;2023-08-06T03:08:19;10.70;99.90
10826;DHT22;5466;55.898;14.094;2023-08-06T03:10:22;10.70;99.90
10826;DHT22;5466;55.898;14.094;2023-08-06T03:12:23;10.80;99.90
10826;DHT22;5466;55.898;14.094;2023-08-06T03:14:23;10.80;99.90
10826;DHT22;5466;55.898;14.094;2023-08-06T03:16:24;10.80;99.90
10826;DHT22;5466;55.898;14.094;2023-08-06T03:18:25;10.80;99.90
10826;DHT22;5466;55.898;14.094;2023-08-06T03:20:28;10.70;99.90
10826;DHT22;5466;55.898;14.094;2023-08-06T03:22:29;10.80;99.90
10826;DHT22;5466;55.898;14.094;2023-08-06T03:24:29;10.80;99.90
10826;DHT22;5466;55.898;14.094;2023-08-06T03:26:30;10.80;99.90
10826;DHT22;5466;55.898;14.094;2023-08-06T03:28:31;10.80;99.90
10826;DHT22;5466;55.898;14.094;2023-08-06T03:30:31;10.90;99.90
10826;DHT22;5466;55.898;14.094;2023-08-06T03:32:32;10.90;99.90
10826;DHT22;5466;55.898;14.094;2023-08-06T03:34:32;10.90;99.90
10826;DHT22;5466;55.898;14.094;2023-08-06T03:36:33;10.90;99.90
10826;DHT22;5466;55.898;14.094;2023-08-06T03:38:34;10.90;99.90
10826;DHT22;5466;55.898;14.094;2023-08-06T03:40:37;10.90;99.90
10826;DHT22;5466;55.898;14.094;2023-08-06T03:42:38;10.90;99.90
10826;DHT22;5466;55.898;14.094;2023-08-06T03:44:39;10.90;99.90
10826;DHT22;5466;55.898;14.094;2023-08-06T03:46:39;11.00;99.90
10826;DHT22;5466;55.898;14.094;2023-08-06T03:48:40;11.00;99.90
10826;DHT22;5466;55.898;14.094;2023-08-06T03:50:41;11.00;99.90
10826;DHT22;5466;55.898;14.094;2023-08-06T03:52:41;11.10;99.90
10826;DHT22;5466;55.898;14.094;2023-08-06T03:54:42;11.20;99.90
10826;DHT22;5466;55.898;14.094;2023-08-06T03:56:43;11.10;99.90
10826;DHT22;5466;55.898;14.094;2023-08-06T03:58:44;11.20;99.90
10826;DHT22;5466;55.898;14.094;2023-08-06T04:00:44;11.20;99.90
10826;DHT22;5466;55.898;14.094;2023-08-06T04:02:45;11.20;99.90
10826;DHT22;5466;55.898;14.094;2023-08-06T04:04:45;11.20;99.90
10826;DHT22;5466;55.898;14.094;2023-08-06T04:06:46;11.30;99.90
10826;DHT22;5466;55.898;14.094;2023-08-06T04:08:46;11.30;99.90
10826;DHT22;5466;55.898;14.094;2023-08-06T04:10:53;11.30;99.90
10826;DHT22;5466;55.898;14.094;2023-08-06T04:12:54;11.30;99.90
10826;DHT22;5466;55.898;14.094;2023-08-06T04:14:57;11.30;99.90
10826;DHT22;5466;55.898;14.094;2023-08-06T04:16:58;11.30;99.90
10826;DHT22;5466;55.898;14.094;2023-08-06T04:18:59;11.30;99.90
10826;DHT22;5466;55.898;14.094;2023-08-06T04:21:01;11.40;99.90
10826;DHT22;5466;55.898;14.094;2023-08-06T04:23:06;11.40;99.90
10826;DHT22;5466;55.898;14.094;2023-08-06T04:25:07;11.50;99.90
10826;DHT22;5466;55.898;14.094;2023-08-06T04:27:08;11.50;99.90
10826;DHT22;5466;55.898;14.094;2023-08-06T04:29:09;11.60;99.90
10826;DHT22;5466;55.898;14.094;2023-08-06T04:31:10;11.60;99.90
10826;DHT22;5466;55.898;14.094;2023-08-06T04:33:10;11.60;99.90
10826;DHT22;5466;55.898;14.094;2023-08-06T04:35:11;11.60;99.90
10826;DHT22;5466;55.898;14.094;2023-08-06T04:37:11;11.60;99.90
10826;DHT22;5466;55.898;14.094;2023-08-06T04:39:12;11.70;99.90
10826;DHT22;5466;55.898;14.094;2023-08-06T04:41:13;11.80;99.90
10826;DHT22;5466;55.898;14.094;2023-08-06T04:43:14;11.90;99.90
10826;DHT22;5466;55.898;14.094;2023-08-06T04:45:14;11.90;99.90
10826;DHT22;5466;55.898;14.094;2023-08-06T04:47:15;12.00;99.90
10826;DHT22;5466;55.898;14.094;2023-08-06T04:49:15;12.00;99.90
10826;DHT22;5466;55.898;14.094;2023-08-06T04:51:16;12.00;99.90
10826;DHT22;5466;55.898;14.094;2023-08-06T04:53:17;12.00;99.90
10826;DHT22;5466;55.898;14.094;2023-08-06T04:55:17;12.10;99.90
10826;DHT22;5466;55.898;14.094;2023-08-06T04:57:18;12.20;99.90
10826;DHT22;5466;55.898;14.094;2023-08-06T04:59:18;12.30;99.90
10826;DHT22;5466;55.898;14.094;2023-08-06T05:01:19;12.40;99.90
10826;DHT22;5466;55.898;14.094;2023-08-06T05:03:20;12.50;99.90
10826;DHT22;5466;55.898;14.094;2023-08-06T05:05:21;12.60;99.90
10826;DHT22;5466;55.898;14.094;2023-08-06T05:07:21;12.80;99.90
10826;DHT22;5466;55.898;14.094;2023-08-06T05:09:22;12.90;99.90
10826;DHT22;5466;55.898;14.094;2023-08-06T05:11:24;12.90;99.90
10826;DHT22;5466;55.898;14.094;2023-08-06T05:13:25;12.90;99.90
10826;DHT22;5466;55.898;14.094;2023-08-06T05:15:25;13.00;99.90
10826;DHT22;5466;55.898;14.094;2023-08-06T05:17:27;13.00;99.90
10826;DHT22;5466;55.898;14.094;2023-08-06T05:19:27;13.10;99.90
10826;DHT22;5466;55.898;14.094;2023-08-06T05:21:28;13.20;99.90
10826;DHT22;5466;55.898;14.094;2023-08-06T05:23:29;13.30;99.90
10826;DHT22;5466;55.898;14.094;2023-08-06T05:25:30;13.40;99.90
10826;DHT22;5466;55.898;14.094;2023-08-06T05:27:30;13.40;99.90
10826;DHT22;5466;55.898;14.094;2023-08-06T05:29:31;13.50;99.90
10826;DHT22;5466;55.898;14.094;2023-08-06T05:31:31;13.50;99.90
10826;DHT22;5466;55.898;14.094;2023-08-06T05:33:32;13.60;99.90
10826;DHT22;5466;55.898;14.094;2023-08-06T05:35:33;13.60;99.90
10826;DHT22;5466;55.898;14.094;2023-08-06T05:37:33;13.70;99.90
10826;DHT22;5466;55.898;14.094;2023-08-06T05:39:34;13.70;99.90
10826;DHT22;5466;55.898;14.094;2023-08-06T05:41:35;13.80;99.90
10826;DHT22;5466;55.898;14.094;2023-08-06T05:43:35;13.90;99.90
10826;DHT22;5466;55.898;14.094;2023-08-06T05:45:36;14.00;99.90
10826;DHT22;5466;55.898;14.094;2023-08-06T05:47:36;14.10;99.90
10826;DHT22;5466;55.898;14.094;2023-08-06T05:49:37;14.20;99.90
10826;DHT22;5466;55.898;14.094;2023-08-06T05:51:37;14.30;99.90
10826;DHT22;5466;55.898;14.094;2023-08-06T05:53:38;14.30;99.90
10826;DHT22;5466;55.898;14.094;2023-08-06T05:55:39;14.40;99.90
10826;DHT22;5466;55.898;14.094;2023-08-06T05:57:40;14.50;99.90
10826;DHT22;5466;55.898;14.094;2023-08-06T05:59:40;14.70;99.90
10826;DHT22;5466;55.898;14.094;2023-08-06T06:01:41;14.90;99.90
10826;DHT22;5466;55.898;14.094;2023-08-06T06:03:42;14.90;99.90
10826;DHT22;5466;55.898;14.094;2023-08-06T06:05:42;15.00;99.90
10826;DHT22;5466;55.898;14.094;2023-08-06T06:07:43;15.00;99.90
10826;DHT22;5466;55.898;14.094;2023-08-06T06:09:43;15.00;99.90
10826;DHT22;5466;55.898;14.094;2023-08-06T06:11:44;15.10;99.90
10826;DHT22;5466;55.898;14.094;2023-08-06T06:13:45;15.20;99.90
10826;DHT22;5466;55.898;14.094;2023-08-06T06:15:46;15.20;99.90
10826;DHT22;5466;55.898;14.094;2023-08-06T06:17:47;15.40;99.90
10826;DHT22;5466;55.898;14.094;2023-08-06T06:19:48;15.60;99.90
10826;DHT22;5466;55.898;14.094;2023-08-06T06:21:49;15.60;99.90
10826;DHT22;5466;55.898;14.094;2023-08-06T06:23:49;15.70;99.90
10826;DHT22;5466;55.898;14.094;2023-08-06T06:25:51;15.90;99.90
10826;DHT22;5466;55.898;14.094;2023-08-06T06:27:52;16.10;99.90
10826;DHT22;5466;55.898;14.094;2023-08-06T06:29:52;16.20;99.90
10826;DHT22;5466;55.898;14.094;2023-08-06T06:31:54;16.20;99.90
10826;DHT22;5466;55.898;14.094;2023-08-06T06:33:55;16.50;99.90
10826;DHT22;5466;55.898;14.094;2023-08-06T06:35:56;16.60;99.90
10826;DHT22;5466;55.898;14.094;2023-08-06T06:37:56;16.80;99.90
10826;DHT22;5466;55.898;14.094;2023-08-06T06:39:57;17.00;99.90
10826;DHT22;5466;55.898;14.094;2023-08-06T06:41:57;17.10;99.90
10826;DHT22;5466;55.898;14.094;2023-08-06T06:43:58;17.20;99.90
10826;DHT22;5466;55.898;14.094;2023-08-06T06:45:59;17.30;99.90
10826;DHT22;5466;55.898;14.094;2023-08-06T06:48:01;17.40;99.90
10826;DHT22;5466;55.898;14.094;2023-08-06T06:50:01;17.60;99.90
10826;DHT22;5466;55.898;14.094;2023-08-06T06:52:02;17.70;99.90
10826;DHT22;5466;55.898;14.094;2023-08-06T06:54:03;17.90;99.90
10826;DHT22;5466;55.898;14.094;2023-08-06T06:56:04;18.10;99.90
10826;DHT22;5466;55.898;14.094;2023-08-06T06:58:05;18.30;99.90
10826;DHT22;5466;55.898;14.094;2023-08-06T07:00:06;18.40;99.90
10826;DHT22;5466;55.898;14.094;2023-08-06T07:02:07;18.40;99.90
10826;DHT22;5466;55.898;14.094;2023-08-06T07:04:07;18.40;99.90
10826;DHT22;5466;55.898;14.094;2023-08-06T07:06:08;18.40;99.90
10826;DHT22;5466;55.898;14.094;2023-08-06T07:08:09;18.40;99.90
10826;DHT22;5466;55.898;14.094;2023-08-06T07:10:09;18.50;99.90
10826;DHT22;5466;55.898;14.094;2023-08-06T07:12:10;18.40;99.90
10826;DHT22;5466;55.898;14.094;2023-08-06T07:14:11;18.20;99.90
10826;DHT22;5466;55.898;14.094;2023-08-06T07:16:11;18.10;99.90
10826;DHT22;5466;55.898;14.094;2023-08-06T07:18:12;18.20;99.90
10826;DHT22;5466;55.898;14.094;2023-08-06T07:20:13;18.20;99.90
10826;DHT22;5466;55.898;14.094;2023-08-06T07:22:13;18.30;99.90
10826;DHT22;5466;55.898;14.094;2023-08-06T07:24:14;18.40;99.90
10826;DHT22;5466;55.898;14.094;2023-08-06T07:26:15;18.50;99.90
10826;DHT22;5466;55.898;14.094;2023-08-06T07:28:16;18.50;99.90
10826;DHT22;5466;55.898;14.094;2023-08-06T07:30:17;18.30;99.90
10826;DHT22;5466;55.898;14.094;2023-08-06T07:32:17;18.30;99.90
10826;DHT22;5466;55.898;14.094;2023-08-06T07:34:18;18.30;99.90
10826;DHT22;5466;55.898;14.094;2023-08-06T07:36:19;18.40;99.90
10826;DHT22;5466;55.898;14.094;2023-08-06T07:38:19;18.50;99.90
10826;DHT22;5466;55.898;14.094;2023-08-06T07:40:20;18.60;99.90
10826;DHT22;5466;55.898;14.094;2023-08-06T07:42:21;18.70;99.90
10826;DHT22;5466;55.898;14.094;2023-08-06T07:44:21;18.50;99.90
10826;DHT22;5466;55.898;14.094;2023-08-06T07:46:22;18.70;99.90
10826;DHT22;5466;55.898;14.094;2023-08-06T07:48:23;18.60;99.90
10826;DHT22;5466;55.898;14.094;2023-08-06T07:50:23;18.80;99.90
10826;DHT22;5466;55.898;14.094;2023-08-06T07:52:24;19.00;99.90
10826;DHT22;5466;55.898;14.094;2023-08-06T07:54:24;19.20;99.90
10826;DHT22;5466;55.898;14.094;2023-08-06T07:56:25;19.20;99.90
10826;DHT22;5466;55.898;14.094;2023-08-06T07:58:26;19.20;99.90
10826;DHT22;5466;55.898;14.094;2023-08-06T08:00:26;18.90;99.90
10826;DHT22;5466;55.898;14.094;2023-08-06T08:02:27;18.80;99.90
10826;DHT22;5466;55.898;14.094;2023-08-06T08:04:28;18.90;99.90
10826;DHT22;5466;55.898;14.094;2023-08-06T08:06:28;18.90;99.90
10826;DHT22;5466;55.898;14.094;2023-08-06T08:08:29;19.00;99.90
10826;DHT22;5466;55.898;14.094;2023-08-06T08:10:30;19.00;99.90
10826;DHT22;5466;55.898;14.094;2023-08-06T08:12:31;18.70;99.90
10826;DHT22;5466;55.898;14.094;2023-08-06T08:14:31;18.60;99.90
10826;DHT22;5466;55.898;14.094;2023-08-06T08:16:38;18.80;99.90
10826;DHT22;5466;55.898;14.094;2023-08-06T08:18:39;18.90;99.90
10826;DHT22;5466;55.898;14.094;2023-08-06T08:20:39;18.80;99.90
10826;DHT22;5466;55.898;14.094;2023-08-06T08:22:40;18.60;99.90
10826;DHT22;5466;55.898;14.094;2023-08-06T08:24:40;18.80;99.90
10826;DHT22;5466;55.898;14.094;2023-08-06T08:26:41;18.80;99.90
10826;DHT22;5466;55.898;14.094;2023-08-06T08:28:42;18.80;99.90
10826;DHT22;5466;55.898;14.094;2023-08-06T08:30:42;18.80;99.90
10826;DHT22;5466;55.898;14.094;2023-08-06T08:32:43;18.80;99.90
10826;DHT22;5466;55.898;14.094;2023-08-06T08:34:43;18.70;99.90
10826;DHT22;5466;55.898;14.094;2023-08-06T08:36:45;18.40;99.90
10826;DHT22;5466;55.898;14.094;2023-08-06T08:38:48;18.50;99.90
10826;DHT22;5466;55.898;14.094;2023-08-06T08:40:52;18.60;99.90
10826;DHT22;5466;55.898;14.094;2023-08-06T08:42:54;18.40;99.90
10826;DHT22;5466;55.898;14.094;2023-08-06T08:44:56;18.50;99.90
10826;DHT22;5466;55.898;14.094;2023-08-06T08:46:57;18.40;99.90
10826;DHT22;5466;55.898;14.094;2023-08-06T08:48:59;18.20;99.90
10826;DHT22;5466;55.898;14.094;2023-08-06T08:51:00;18.20;99.90
10826;DHT22;5466;55.898;14.094;2023-08-06T08:53:01;17.90;99.90
10826;DHT22;5466;55.898;14.094;2023-08-06T08:55:02;17.70;99.90
10826;DHT22;5466;55.898;14.094;2023-08-06T08:57:03;17.60;99.90
10826;DHT22;5466;55.898;14.094;2023-08-06T08:59:04;17.50;99.90
10826;DHT22;5466;55.898;14.094;2023-08-06T09:01:04;17.20;99.90
10826;DHT22;5466;55.898;14.094;2023-08-06T09:03:06;17.00;99.90
10826;DHT22;5466;55.898;14.094;2023-08-06T09:05:09;16.90;99.90
10826;DHT22;5466;55.898;14.094;2023-08-06T09:07:11;16.80;99.90
10826;DHT22;5466;55.898;14.094;2023-08-06T09:09:26;16.60;99.90
10826;DHT22;5466;55.898;14.094;2023-08-06T09:11:27;16.40;99.90
10826;DHT22;5466;55.898;14.094;2023-08-06T09:13:28;16.20;99.90
10826;DHT22;5466;55.898;14.094;2023-08-06T09:15:28;16.10;99.90
10826;DHT22;5466;55.898;14.094;2023-08-06T09:17:29;16.10;99.90
10826;DHT22;5466;55.898;14.094;2023-08-06T09:19:30;16.10;99.90
10826;DHT22;5466;55.898;14.094;2023-08-06T09:21:31;16.00;99.90
10826;DHT22;5466;55.898;14.094;2023-08-06T09:23:31;15.90;99.90
10826;DHT22;5466;55.898;14.094;2023-08-06T09:25:33;15.90;99.90
10826;DHT22;5466;55.898;14.094;2023-08-06T09:27:34;15.90;99.90
10826;DHT22;5466;55.898;14.094;2023-08-06T09:29:34;15.80;99.90
10826;DHT22;5466;55.898;14.094;2023-08-06T09:31:44;15.90;99.90
10826;DHT22;5466;55.898;14.094;2023-08-06T09:33:45;15.90;99.90
10826;DHT22;5466;55.898;14.094;2023-08-06T09:35:48;15.90;99.90
10826;DHT22;5466;55.898;14.094;2023-08-06T09:37:52;15.90;99.90
10826;DHT22;5466;55.898;14.094;2023-08-06T09:39:52;15.90;99.90
10826;DHT22;5466;55.898;14.094;2023-08-06T09:41:58;15.90;99.90
10826;DHT22;5466;55.898;14.094;2023-08-06T09:43:59;15.90;99.90
10826;DHT22;5466;55.898;14.094;2023-08-06T09:46:00;16.00;99.90
10826;DHT22;5466;55.898;14.094;2023-08-06T09:48:03;16.00;99.90
10826;DHT22;5466;55.898;14.094;2023-08-06T09:50:05;16.20;99.90
10826;DHT22;5466;55.898;14.094;2023-08-06T09:52:12;16.30;99.90
10826;DHT22;5466;55.898;14.094;2023-08-06T09:54:14;16.50;99.90
10826;DHT22;5466;55.898;14.094;2023-08-06T09:56:17;16.60;99.90
10826;DHT22;5466;55.898;14.094;2023-08-06T09:58:18;16.60;99.90
10826;DHT22;5466;55.898;14.094;2023-08-06T10:00:20;16.70;99.90
10826;DHT22;5466;55.898;14.094;2023-08-06T10:02:25;16.80;99.90
10826;DHT22;5466;55.898;14.094;2023-08-06T10:04:26;16.80;99.90
10826;DHT22;5466;55.898;14.094;2023-08-06T10:06:30;16.80;99.90
10826;DHT22;5466;55.898;14.094;2023-08-06T10:08:30;16.90;99.90
10826;DHT22;5466;55.898;14.094;2023-08-06T10:10:31;16.90;99.90
10826;DHT22;5466;55.898;14.094;2023-08-06T10:12:35;16.90;99.90
10826;DHT22;5466;55.898;14.094;2023-08-06T10:14:37;16.80;99.90
10826;DHT22;5466;55.898;14.094;2023-08-06T10:16:42;16.70;99.90
10826;DHT22;5466;55.898;14.094;2023-08-06T10:18:43;16.50;99.90
10826;DHT22;5466;55.898;14.094;2023-08-06T10:20:43;16.50;99.90
10826;DHT22;5466;55.898;14.094;2023-08-06T10:22:44;16.50;99.90
10826;DHT22;5466;55.898;14.094;2023-08-06T10:24:53;16.40;99.90
10826;DHT22;5466;55.898;14.094;2023-08-06T10:26:58;16.30;99.90
10826;DHT22;5466;55.898;14.094;2023-08-06T10:28:59;16.20;99.90
10826;DHT22;5466;55.898;14.094;2023-08-06T10:30:59;16.20;99.90
10826;DHT22;5466;55.898;14.094;2023-08-06T10:33:03;16.30;99.90
10826;DHT22;5466;55.898;14.094;2023-08-06T10:35:04;16.30;99.90
10826;DHT22;5466;55.898;14.094;2023-08-06T10:37:05;16.30;99.90
10826;DHT22;5466;55.898;14.094;2023-08-06T10:39:05;16.30;99.90
10826;DHT22;5466;55.898;14.094;2023-08-06T10:41:06;16.30;99.90
10826;DHT22;5466;55.898;14.094;2023-08-06T10:43:07;16.30;99.90
10826;DHT22;5466;55.898;14.094;2023-08-06T10:45:17;16.30;99.90
10826;DHT22;5466;55.898;14.094;2023-08-06T10:47:26;16.20;99.90
10826;DHT22;5466;55.898;14.094;2023-08-06T10:49:28;16.20;99.90
10826;DHT22;5466;55.898;14.094;2023-08-06T10:51:29;16.20;99.90
10826;DHT22;5466;55.898;14.094;2023-08-06T10:53:30;16.20;99.90
10826;DHT22;5466;55.898;14.094;2023-08-06T10:55:31;16.30;99.90
10826;DHT22;5466;55.898;14.094;2023-08-06T10:57:32;16.30;99.90
10826;DHT22;5466;55.898;14.094;2023-08-06T10:59:33;16.30;99.90
10826;DHT22;5466;55.898;14.094;2023-08-06T11:01:33;16.30;99.90
10826;DHT22;5466;55.898;14.094;2023-08-06T11:03:36;16.20;99.90
10826;DHT22;5466;55.898;14.094;2023-08-06T11:05:37;16.20;99.90
10826;DHT22;5466;55.898;14.094;2023-08-06T11:07:38;16.20;99.90
10826;DHT22;5466;55.898;14.094;2023-08-06T11:09:39;16.20;99.90
10826;DHT22;5466;55.898;14.094;2023-08-06T11:11:40;16.10;99.90
10826;DHT22;5466;55.898;14.094;2023-08-06T11:13:44;16.10;99.90
10826;DHT22;5466;55.898;14.094;2023-08-06T11:15:46;16.20;99.90
10826;DHT22;5466;55.898;14.094;2023-08-06T11:17:47;16.10;99.90
10826;DHT22;5466;55.898;14.094;2023-08-06T11:19:48;16.10;99.90
10826;DHT22;5466;55.898;14.094;2023-08-06T11:21:50;16.00;99.90
10826;DHT22;5466;55.898;14.094;2023-08-06T11:23:51;16.00;99.90
10826;DHT22;5466;55.898;14.094;2023-08-06T11:25:53;15.90;99.90
10826;DHT22;5466;55.898;14.094;2023-08-06T11:27:54;15.80;99.90
10826;DHT22;5466;55.898;14.094;2023-08-06T11:29:54;15.80;99.90
10826;DHT22;5466;55.898;14.094;2023-08-06T11:32:04;15.80;99.90
10826;DHT22;5466;55.898;14.094;2023-08-06T11:34:04;15.80;99.90
10826;DHT22;5466;55.898;14.094;2023-08-06T11:36:05;15.80;99.90
10826;DHT22;5466;55.898;14.094;2023-08-06T11:38:06;15.80;99.90
10826;DHT22;5466;55.898;14.094;2023-08-06T11:40:08;15.90;99.90
10826;DHT22;5466;55.898;14.094;2023-08-06T11:42:12;16.00;99.90
10826;DHT22;5466;55.898;14.094;2023-08-06T11:44:12;15.90;99.90
10826;DHT22;5466;55.898;14.094;2023-08-06T11:46:14;16.00;99.90
10826;DHT22;5466;55.898;14.094;2023-08-06T11:48:14;16.00;99.90
10826;DHT22;5466;55.898;14.094;2023-08-06T11:50:25;16.00;99.90
10826;DHT22;5466;55.898;14.094;2023-08-06T11:52:26;15.90;99.90
10826;DHT22;5466;55.898;14.094;2023-08-06T11:54:32;15.80;99.90
10826;DHT22;5466;55.898;14.094;2023-08-06T11:56:37;15.80;99.90
10826;DHT22;5466;55.898;14.094;2023-08-06T11:58:38;15.60;99.90
10826;DHT22;5466;55.898;14.094;2023-08-06T12:00:42;15.60;99.90
10826;DHT22;5466;55.898;14.094;2023-08-06T12:02:44;15.50;99.90
10826;DHT22;5466;55.898;14.094;2023-08-06T12:05:09;15.60;99.90
10826;DHT22;5466;55.898;14.094;2023-08-06T12:07:10;15.50;99.90
10826;DHT22;5466;55.898;14.094;2023-08-06T12:09:10;15.50;99.90
10826;DHT22;5466;55.898;14.094;2023-08-06T12:11:11;15.50;99.90
10826;DHT22;5466;55.898;14.094;2023-08-06T12:13:12;15.50;99.90
10826;DHT22;5466;55.898;14.094;2023-08-06T12:15:13;15.40;99.90
10826;DHT22;5466;55.898;14.094;2023-08-06T12:17:14;15.40;99.90
10826;DHT22;5466;55.898;14.094;2023-08-06T12:19:15;15.40;99.90
10826;DHT22;5466;55.898;14.094;2023-08-06T12:21:15;15.30;99.90
10826;DHT22;5466;55.898;14.094;2023-08-06T12:23:16;15.30;99.90
10826;DHT22;5466;55.898;14.094;2023-08-06T12:25:16;15.20;99.90
10826;DHT22;5466;55.898;14.094;2023-08-06T12:27:17;15.00;99.90
10826;DHT22;5466;55.898;14.094;2023-08-06T12:29:17;15.00;99.90
10826;DHT22;5466;55.898;14.094;2023-08-06T12:31:18;14.90;99.90
10826;DHT22;5466;55.898;14.094;2023-08-06T12:33:19;14.80;99.90
10826;DHT22;5466;55.898;14.094;2023-08-06T12:35:19;14.80;99.90
10826;DHT22;5466;55.898;14.094;2023-08-06T12:37:21;14.70;99.90
10826;DHT22;5466;55.898;14.094;2023-08-06T12:39:22;14.70;99.90
10826;DHT22;5466;55.898;14.094;2023-08-06T12:41:22;14.70;99.90
10826;DHT22;5466;55.898;14.094;2023-08-06T12:43:23;14.70;99.90
10826;DHT22;5466;55.898;14.094;2023-08-06T12:45:23;14.70;99.90
10826;DHT22;5466;55.898;14.094;2023-08-06T12:47:24;14.70;99.90
10826;DHT22;5466;55.898;14.094;2023-08-06T12:49:25;14.70;99.90